Time;durP1;ratioP1;P1;durP2;ratioP2;P2;SDS_P1;SDS_P2;PMS_P1;PMS_P2;Temp;Humidity;BMP_temperature;BMP_pressure;BME280_temperature;BME280_humidity;BME280_pressure;Samples;Min_cycle;Max_cycle;Signal;HPM_P1;HPM_P2
2022/01/28 00:04:48;;;;;;;13.48;1.65;;;5.60;99.90;;;;;;5117289;28;20043;-71
2022/01/28 00:07:14;;;;;;;8.55;1.88;;;5.20;99.90;;;;;;5116256;28;20043;-73
2022/01/28 00:09:40;;;;;;;12.70;2.28;;;5.60;99.90;;;;;;5117461;28;20048;-71
2022/01/28 00:12:09;;;;;;;10.90;1.42;;;5.30;99.90;;;;;;5117382;28;20046;-71
2022/01/28 00:38:47;;;;;;;10.75;1.40;;;5.50;99.90;;;;;;5117493;28;20067;-73
2022/01/28 00:41:14;;;;;;;10.00;1.52;;;5.60;99.90;;;;;;5116853;28;20437;-69
2022/01/28 00:43:40;;;;;;;7.45;1.00;;;5.20;99.90;;;;;;5115838;28;20480;-69
2022/01/28 00:46:07;;;;;;;8.73;1.30;;;5.70;99.90;;;;;;5116772;28;20039;-72
2022/01/28 00:48:33;;;;;;;8.27;1.75;;;5.20;99.90;;;;;;5117192;28;20042;-72
2022/01/28 00:50:58;;;;;;;9.00;1.00;;;5.50;99.90;;;;;;5115500;28;20078;-74
2022/01/28 00:53:24;;;;;;;8.95;1.42;;;5.60;99.90;;;;;;5098532;28;20471;-71
2022/01/28 00:55:50;;;;;;;10.88;1.10;;;5.10;99.90;;;;;;5116593;28;20044;-71
2022/01/28 00:58:15;;;;;;;12.50;1.65;;;5.30;99.90;;;;;;5116554;28;20046;-75
2022/01/28 01:00:41;;;;;;;12.35;1.48;;;5.40;99.90;;;;;;5116476;28;20039;-73
2022/01/28 01:03:07;;;;;;;10.05;1.65;;;5.30;99.90;;;;;;5116439;28;20398;-71
2022/01/28 01:05:34;;;;;;;13.02;1.67;;;5.40;99.90;;;;;;5116897;28;20458;-73
2022/01/28 01:08:04;;;;;;;10.18;1.20;;;5.00;99.90;;;;;;5117091;28;20436;-73
2022/01/28 01:10:30;;;;;;;7.78;1.23;;;5.10;99.90;;;;;;5116380;28;20104;-72
2022/01/28 01:12:56;;;;;;;8.90;1.05;;;5.30;99.90;;;;;;5116099;28;20458;-70
2022/01/28 01:15:27;;;;;;;10.07;1.80;;;5.30;99.90;;;;;;5116277;28;20131;-74
2022/01/28 01:18:05;;;;;;;9.15;1.02;;;5.20;99.90;;;;;;5116058;28;20082;-79
2022/01/28 01:20:54;;;;;;;8.00;1.23;;;5.20;99.90;;;;;;5116487;28;20055;-74
2022/01/28 01:23:30;;;;;;;10.00;1.25;;;5.20;99.90;;;;;;5115165;28;20050;-75
2022/01/28 01:28:31;;;;;;;8.90;1.50;;;5.30;99.90;;;;;;5115128;28;20499;-74
2022/01/28 01:30:59;;;;;;;8.88;1.42;;;5.20;99.90;;;;;;5115913;28;20046;-73
2022/01/28 01:33:26;;;;;;;6.95;1.20;;;5.30;99.90;;;;;;5115587;28;20487;-76
2022/01/28 01:35:52;;;;;;;6.75;1.25;;;5.00;99.90;;;;;;5116050;27;20040;-72
2022/01/28 01:38:17;;;;;;;10.63;2.03;;;5.20;99.90;;;;;;5116299;28;20135;-72
2022/01/28 01:40:52;;;;;;;8.48;1.20;;;5.00;99.90;;;;;;5116212;28;20070;-71
2022/01/28 01:45:58;;;;;;;11.30;1.50;;;5.40;99.90;;;;;;5115626;28;20090;-75
2022/01/28 01:54:01;;;;;;;10.30;1.55;;;5.40;99.90;;;;;;5098842;28;20051;-70
2022/01/28 01:56:28;;;;;;;12.35;1.63;;;4.70;99.90;;;;;;5115402;28;20131;-73
2022/01/28 01:58:56;;;;;;;16.88;1.95;;;5.10;99.90;;;;;;5115052;28;20492;-73
2022/01/28 02:01:21;;;;;;;11.80;1.60;;;4.90;99.90;;;;;;5115274;28;20051;-73
2022/01/28 02:03:47;;;;;;;12.27;1.70;;;5.10;99.90;;;;;;5114129;28;20100;-72
2022/01/28 02:06:20;;;;;;;11.80;1.48;;;5.10;99.90;;;;;;5115173;28;20054;-73
2022/01/28 02:08:47;;;;;;;11.40;1.92;;;5.00;99.90;;;;;;5115684;28;20047;-71
2022/01/28 02:11:13;;;;;;;9.63;1.42;;;5.10;99.90;;;;;;5097165;28;20047;-73
2022/01/28 02:13:40;;;;;;;12.10;1.73;;;5.30;99.90;;;;;;5113898;28;20043;-75
2022/01/28 02:16:07;;;;;;;7.78;1.30;;;5.30;99.90;;;;;;5115054;28;20104;-72
2022/01/28 02:18:32;;;;;;;10.98;1.58;;;5.10;99.90;;;;;;5113997;28;20044;-73
2022/01/28 02:21:06;;;;;;;10.30;1.17;;;5.30;99.90;;;;;;5115518;28;20051;-73
2022/01/28 02:23:31;;;;;;;;;;;6.20;99.90;;;;;;5116003;28;20047;-73
2022/01/28 02:25:59;;;;;;;9.90;2.13;;;5.40;99.90;;;;;;5114775;28;19941;-73
2022/01/28 02:28:26;;;;;;;12.73;2.40;;;5.30;99.90;;;;;;5115197;28;20047;-71
2022/01/28 02:30:52;;;;;;;16.48;2.08;;;5.60;99.90;;;;;;5114704;28;20631;-74
2022/01/28 02:33:21;;;;;;;14.20;2.20;;;5.30;99.90;;;;;;5115196;28;20111;-73
2022/01/28 02:35:49;;;;;;;10.50;2.03;;;5.60;99.90;;;;;;5114562;28;20496;-73
2022/01/28 02:38:16;;;;;;;13.80;1.83;;;5.30;99.90;;;;;;5113511;28;20044;-70
2022/01/28 02:40:49;;;;;;;11.70;2.00;;;5.80;99.90;;;;;;5115105;28;20118;-72
2022/01/28 02:45:51;;;;;;;11.98;1.85;;;5.40;99.90;;;;;;5114587;28;20047;-71
2022/01/28 02:48:29;;;;;;;8.75;2.00;;;5.90;99.90;;;;;;5113562;28;20083;-73
2022/01/28 02:53:27;;;;;;;10.82;1.80;;;5.50;99.90;;;;;;5114177;28;20096;-72
2022/01/28 02:56:01;;;;;;;10.80;1.92;;;5.60;99.90;;;;;;5114356;28;20047;-73
2022/01/28 02:58:27;;;;;;;13.35;1.85;;;5.30;99.90;;;;;;5114886;28;20104;-74
2022/01/28 03:00:54;;;;;;;15.60;2.05;;;5.60;99.90;;;;;;5114064;28;20483;-74
2022/01/28 03:03:23;;;;;;;11.20;2.08;;;5.60;99.90;;;;;;5113536;28;20139;-74
2022/01/28 03:05:52;;;;;;;12.65;2.17;;;5.90;99.90;;;;;;5114434;28;20044;-70
2022/01/28 03:08:23;;;;;;;10.57;1.70;;;5.70;99.90;;;;;;5112896;28;20043;-69
2022/01/28 03:11:13;;;;;;;9.05;1.60;;;6.10;99.90;;;;;;5114177;28;20050;-70
2022/01/28 03:16:12;;;;;;;15.35;1.50;;;5.50;99.90;;;;;;5114585;28;20497;-70
2022/01/28 03:18:50;;;;;;;10.48;1.80;;;5.80;99.90;;;;;;5114636;28;20044;-73
2022/01/28 03:21:24;;;;;;;9.82;1.40;;;6.00;99.90;;;;;;5114118;28;20035;-70
2022/01/28 03:23:51;;;;;;;10.65;1.65;;;5.80;99.90;;;;;;5114856;28;20377;-70
2022/01/28 03:26:17;;;;;;;15.80;2.80;;;5.70;99.90;;;;;;5113962;28;20100;-73
2022/01/28 03:28:43;;;;;;;12.00;1.52;;;5.70;99.90;;;;;;5114404;28;20047;-72
2022/01/28 03:31:09;;;;;;;9.90;1.23;;;5.80;99.90;;;;;;5095928;28;20047;-70
2022/01/28 03:33:34;;;;;;;10.20;1.15;;;6.00;99.90;;;;;;5113881;28;20097;-72
2022/01/28 03:36:03;;;;;;;11.05;1.45;;;6.00;99.90;;;;;;5112602;28;20051;-72
2022/01/28 03:38:29;;;;;;;12.30;1.63;;;6.00;99.90;;;;;;5114436;28;20035;-70
2022/01/28 03:40:56;;;;;;;11.73;1.80;;;5.90;99.90;;;;;;5112653;28;20101;-71
2022/01/28 03:43:22;;;;;;;9.77;1.50;;;6.00;99.90;;;;;;5112605;28;20051;-69
2022/01/28 03:45:48;;;;;;;11.32;1.85;;;5.90;99.90;;;;;;5112634;28;20036;-71
2022/01/28 03:48:15;;;;;;;10.73;1.40;;;6.00;99.90;;;;;;5114275;28;20384;-72
2022/01/28 03:50:40;;;;;;;7.30;1.35;;;6.10;99.90;;;;;;5113395;28;20485;-70
2022/01/28 03:53:08;;;;;;;8.52;2.00;;;5.90;99.90;;;;;;5114226;28;20040;-71
2022/01/28 03:55:34;;;;;;;5.63;1.13;;;6.00;99.90;;;;;;5113679;28;20048;-73
2022/01/28 03:58:00;;;;;;;10.60;1.10;;;6.70;99.90;;;;;;5113714;28;20137;-72
2022/01/28 04:00:29;;;;;;;8.27;1.02;;;5.80;99.90;;;;;;5096003;28;20074;-73
2022/01/28 04:03:06;;;;;;;8.85;1.45;;;5.80;99.90;;;;;;5113841;28;20070;-72
2022/01/28 04:13:27;;;;;;;9.13;1.85;;;6.10;99.90;;;;;;5115016;28;20080;-71
2022/01/28 04:18:25;;;;;;;12.95;1.60;;;5.80;99.90;;;;;;5117394;28;20054;-73
2022/01/28 04:20:51;;;;;;;12.68;1.55;;;5.80;99.90;;;;;;5117757;28;20057;-72
2022/01/28 04:23:18;;;;;;;11.23;1.33;;;6.10;99.90;;;;;;5099441;28;20051;-74
2022/01/28 04:25:44;;;;;;;12.65;2.25;;;6.40;99.90;;;;;;5115940;28;20122;-76
2022/01/28 04:28:09;;;;;;;12.77;1.63;;;5.60;99.90;;;;;;5098773;28;20134;-70
2022/01/28 04:30:35;;;;;;;8.00;1.23;;;6.20;99.90;;;;;;5115920;28;20047;-71
2022/01/28 04:33:01;;;;;;;16.52;2.08;;;5.80;99.90;;;;;;5117541;28;20051;-71
2022/01/28 04:35:27;;;;;;;10.32;1.50;;;6.00;99.90;;;;;;5115945;28;20047;-72
2022/01/28 04:40:23;;;;;;;13.02;2.00;;;6.10;99.90;;;;;;5117674;28;20267;-71
2022/01/28 04:46:09;;;;;;;;;;;6.50;99.90;;;;;;5074366;28;20141;-73
2022/01/28 04:53:41;;;;;;;11.15;2.22;;;5.80;99.90;;;;;;5116633;28;20051;-74
2022/01/28 05:07:17;;;;;;;12.02;2.00;;;5.70;99.90;;;;;;5116243;28;20051;-71
2022/01/28 05:23:41;;;;;;;15.93;2.15;;;5.70;99.90;;;;;;5100923;28;20055;-72
2022/01/28 05:28:39;;;;;;;16.38;2.58;;;6.40;99.90;;;;;;5116721;27;20116;-73
2022/01/28 05:31:05;;;;;;;12.95;1.80;;;6.10;99.90;;;;;;5115710;28;20074;-72
2022/01/28 05:33:31;;;;;;;18.48;2.05;;;6.00;99.90;;;;;;5115266;28;20518;-71
2022/01/28 05:35:56;;;;;;;17.98;2.50;;;6.00;99.90;;;;;;5115776;28;20445;-70
2022/01/28 05:38:22;;;;;;;12.65;1.95;;;6.10;99.90;;;;;;5115733;28;20043;-71
2022/01/28 05:40:48;;;;;;;22.23;4.32;;;6.30;99.90;;;;;;5114700;28;20246;-73
2022/01/28 05:43:13;;;;;;;15.18;2.63;;;5.80;99.90;;;;;;5115911;28;20047;-71
2022/01/28 05:45:40;;;;;;;10.38;1.80;;;6.00;99.90;;;;;;5115467;28;20368;-71
2022/01/28 05:48:06;;;;;;;14.10;1.98;;;6.00;99.90;;;;;;5114383;28;20047;-73
2022/01/28 05:50:32;;;;;;;10.55;2.45;;;5.90;99.90;;;;;;5115166;28;20437;-76
2022/01/28 05:53:00;;;;;;;10.07;1.85;;;6.20;99.90;;;;;;5115043;28;20052;-72
2022/01/28 05:55:26;;;;;;;10.45;1.73;;;5.80;99.90;;;;;;5115401;28;20055;-72
2022/01/28 05:57:51;;;;;;;11.40;1.48;;;5.80;99.90;;;;;;5115928;28;20498;-72
2022/01/28 06:00:17;;;;;;;13.73;1.83;;;5.90;99.90;;;;;;5115197;28;20043;-72
2022/01/28 06:02:45;;;;;;;14.38;1.60;;;5.80;99.90;;;;;;5115136;28;20054;-72
2022/01/28 06:05:11;;;;;;;14.38;2.08;;;5.90;99.90;;;;;;5114930;28;20396;-72
2022/01/28 06:07:41;;;;;;;13.32;2.15;;;5.90;99.90;;;;;;5113536;28;20070;-72
2022/01/28 06:10:08;;;;;;;11.07;1.83;;;6.00;99.90;;;;;;5115257;28;20519;-72
2022/01/28 06:12:42;;;;;;;12.73;2.25;;;5.70;99.90;;;;;;5115596;27;20051;-74
2022/01/28 06:15:08;;;;;;;;;;;5.90;99.90;;;;;;5115370;28;20407;-73
2022/01/28 06:17:34;;;;;;;20.70;2.30;;;5.80;99.90;;;;;;5114960;28;19920;-71
2022/01/28 06:20:00;;;;;;;11.13;2.00;;;5.90;99.90;;;;;;5096755;28;20059;-72
2022/01/28 06:22:26;;;;;;;14.27;1.95;;;5.80;99.90;;;;;;5115444;28;20048;-71
2022/01/28 06:24:52;;;;;;;15.85;2.53;;;6.00;99.90;;;;;;5114875;28;20101;-78
2022/01/28 06:27:17;;;;;;;15.60;2.08;;;5.90;99.90;;;;;;5114264;28;20043;-73
2022/01/28 06:29:43;;;;;;;18.33;3.15;;;6.00;99.90;;;;;;5115412;28;20047;-71
2022/01/28 06:32:11;;;;;;;17.40;2.28;;;5.90;99.90;;;;;;5114760;27;20126;-72
2022/01/28 06:34:38;;;;;;;10.73;1.70;;;5.90;99.90;;;;;;5114446;28;20387;-74
2022/01/28 06:37:05;;;;;;;10.48;1.88;;;6.10;99.90;;;;;;5113500;28;20047;-71
2022/01/28 06:39:32;;;;;;;15.27;2.45;;;5.60;99.90;;;;;;5114229;28;20039;-72
2022/01/28 06:41:59;;;;;;;9.50;1.73;;;5.90;99.90;;;;;;5114677;28;20414;-71
2022/01/28 06:44:25;;;;;;;11.48;1.65;;;5.60;99.90;;;;;;5096647;28;20089;-73
2022/01/28 06:46:51;;;;;;;12.15;1.70;;;5.80;99.90;;;;;;5114601;28;20079;-74
2022/01/28 06:49:18;;;;;;;11.02;1.42;;;5.50;99.90;;;;;;5114379;28;20046;-70
2022/01/28 06:51:44;;;;;;;11.77;1.85;;;5.90;99.90;;;;;;5112659;28;20066;-75
2022/01/28 06:54:10;;;;;;;15.27;1.77;;;6.00;99.90;;;;;;5114331;28;20048;-71
2022/01/28 06:56:35;;;;;;;9.50;1.80;;;6.10;99.90;;;;;;5114371;28;20066;-70
2022/01/28 06:59:02;;;;;;;10.38;1.80;;;5.60;99.90;;;;;;5113003;28;20122;-72
2022/01/28 07:01:27;;;;;;;13.40;2.35;;;5.90;99.90;;;;;;5114266;28;20052;-72
2022/01/28 07:03:53;;;;;;;11.75;1.58;;;6.20;99.90;;;;;;5113224;28;20046;-71
2022/01/28 07:06:19;;;;;;;10.57;2.05;;;5.70;99.90;;;;;;5113087;28;20050;-72
2022/01/28 07:08:45;;;;;;;8.93;1.33;;;5.60;99.90;;;;;;5112641;28;20047;-71
2022/01/28 07:11:11;;;;;;;15.65;1.88;;;5.40;99.90;;;;;;5114553;28;20035;-70
2022/01/28 07:13:37;;;;;;;8.50;1.52;;;5.70;99.90;;;;;;5114097;28;20043;-73
2022/01/28 07:16:03;;;;;;;12.07;1.50;;;6.20;99.90;;;;;;5114696;28;20046;-73
2022/01/28 07:18:29;;;;;;;13.82;2.05;;;5.40;99.90;;;;;;5113704;28;20470;-72
2022/01/28 07:20:55;;;;;;;13.35;2.05;;;6.10;99.90;;;;;;5114822;28;20048;-71
2022/01/28 07:23:21;;;;;;;10.43;1.48;;;5.80;99.90;;;;;;5112806;28;20051;-71
2022/01/28 07:25:46;;;;;;;18.67;2.22;;;5.50;99.90;;;;;;5114706;28;20050;-72
2022/01/28 07:28:12;;;;;;;13.82;1.70;;;5.70;99.90;;;;;;5113850;28;20436;-72
2022/01/28 07:30:38;;;;;;;16.02;2.13;;;5.80;99.90;;;;;;5112932;28;20044;-72
2022/01/28 07:33:07;;;;;;;9.15;2.53;;;5.70;99.90;;;;;;5114642;28;20370;-71
2022/01/28 07:35:34;;;;;;;9.00;1.77;;;5.60;99.90;;;;;;5113736;28;20048;-73
2022/01/28 07:38:00;;;;;;;12.13;1.60;;;5.60;99.90;;;;;;5113564;28;20072;-72
2022/01/28 07:40:25;;;;;;;9.25;1.27;;;5.70;99.90;;;;;;5113532;28;20040;-73
2022/01/28 07:42:51;;;;;;;13.02;1.42;;;5.40;99.90;;;;;;5113924;28;20051;-73
2022/01/28 07:45:17;;;;;;;13.48;2.17;;;5.50;99.90;;;;;;5114589;28;20079;-72
2022/01/28 07:47:44;;;;;;;9.65;2.17;;;5.40;99.90;;;;;;5112464;28;20483;-72
2022/01/28 07:50:11;;;;;;;12.65;2.10;;;5.40;99.90;;;;;;5117569;28;20055;-72
2022/01/28 07:52:38;;;;;;;14.23;2.25;;;5.50;99.90;;;;;;5118671;28;20043;-71
2022/01/28 07:55:05;;;;;;;9.40;1.50;;;5.40;99.90;;;;;;5117799;28;20079;-71
2022/01/28 07:57:31;;;;;;;8.45;1.75;;;5.50;99.90;;;;;;5117715;27;20051;-71
2022/01/28 07:59:58;;;;;;;13.52;1.70;;;5.30;99.90;;;;;;5118484;28;20039;-71
2022/01/28 08:02:23;;;;;;;15.38;1.65;;;5.60;99.90;;;;;;5099757;28;20079;-72
2022/01/28 08:04:49;;;;;;;11.13;1.52;;;5.50;99.90;;;;;;5116443;28;20492;-72
2022/01/28 08:07:15;;;;;;;16.20;2.30;;;5.60;99.90;;;;;;5117684;28;20138;-73
2022/01/28 08:09:41;;;;;;;12.23;2.30;;;5.70;99.90;;;;;;5118130;28;20047;-73
2022/01/28 08:12:07;;;;;;;18.52;1.73;;;6.00;99.90;;;;;;5118220;28;20419;-73
2022/01/28 08:14:33;;;;;;;10.73;2.08;;;5.30;99.90;;;;;;5117542;28;20054;-73
2022/01/28 08:16:59;;;;;;;11.57;2.20;;;5.30;99.90;;;;;;5117409;28;20044;-71
2022/01/28 08:19:25;;;;;;;8.85;2.47;;;5.40;99.90;;;;;;5099260;28;20055;-71
2022/01/28 08:21:51;;;;;;;17.60;1.77;;;5.30;99.90;;;;;;5117114;28;20043;-72
2022/01/28 08:24:17;;;;;;;14.50;2.35;;;5.00;99.90;;;;;;5116330;28;20043;-72
2022/01/28 08:26:42;;;;;;;12.20;1.63;;;5.40;99.90;;;;;;5117460;28;20078;-72
2022/01/28 08:29:08;;;;;;;15.70;2.13;;;5.10;99.90;;;;;;5082946;28;20044;-73
2022/01/28 08:31:34;;;;;;;14.13;1.80;;;5.50;99.90;;;;;;5082861;28;20152;-72
2022/01/28 08:34:01;;;;;;;12.45;1.88;;;5.30;99.90;;;;;;5117402;27;20079;-73
2022/01/28 08:36:27;;;;;;;10.65;1.83;;;5.20;99.90;;;;;;5115814;28;20406;-72
2022/01/28 08:38:55;;;;;;;10.73;2.03;;;5.50;99.90;;;;;;5116110;28;20085;-72
2022/01/28 08:41:24;;;;;;;11.25;2.13;;;5.70;99.90;;;;;;5115801;28;20059;-72
2022/01/28 08:43:51;;;;;;;13.65;1.88;;;5.30;99.90;;;;;;5116035;28;20048;-72
2022/01/28 08:46:17;;;;;;;14.48;2.20;;;5.70;99.90;;;;;;5116977;28;20471;-71
2022/01/28 08:48:43;;;;;;;15.00;2.22;;;5.40;99.90;;;;;;5116799;28;20588;-71
2022/01/28 08:51:09;;;;;;;12.77;1.52;;;5.60;99.90;;;;;;5117041;28;20063;-76
2022/01/28 08:53:38;;;;;;;22.23;3.15;;;5.30;99.90;;;;;;5115823;28;20131;-74
2022/01/28 08:56:04;;;;;;;10.75;1.52;;;6.10;99.90;;;;;;5116774;28;20437;-72
2022/01/28 08:58:30;;;;;;;13.68;1.67;;;5.30;99.90;;;;;;5116069;28;20040;-72
2022/01/28 09:00:55;;;;;;;13.20;2.30;;;5.70;99.90;;;;;;5115270;28;20035;-73
2022/01/28 09:03:24;;;;;;;18.88;2.05;;;5.70;99.90;;;;;;5116610;28;20051;-72
2022/01/28 09:05:50;;;;;;;11.85;1.38;;;5.60;99.90;;;;;;5116150;28;20477;-71
2022/01/28 09:08:16;;;;;;;12.70;2.00;;;5.60;99.90;;;;;;5116529;28;20047;-71
2022/01/28 09:10:45;;;;;;;16.55;2.78;;;5.70;99.90;;;;;;5116502;28;20386;-72
2022/01/28 09:13:22;;;;;;;10.75;1.80;;;5.80;99.90;;;;;;5116405;28;20048;-70
2022/01/28 09:15:49;;;;;;;14.98;2.30;;;5.70;99.90;;;;;;5116763;28;20043;-71
2022/01/28 09:18:16;;;;;;;11.57;2.15;;;6.40;99.90;;;;;;5116388;27;20047;-73
2022/01/28 09:20:42;;;;;;;14.07;1.90;;;5.70;99.90;;;;;;5098055;28;20050;-75
2022/01/28 09:23:09;;;;;;;11.48;1.45;;;5.90;99.90;;;;;;5115036;28;20043;-73
2022/01/28 09:25:35;;;;;;;11.70;1.90;;;6.60;99.90;;;;;;5116081;28;20096;-72
2022/01/28 09:28:01;;;;;;;14.35;1.50;;;6.10;99.90;;;;;;5115856;27;20134;-71
2022/01/28 09:30:27;;;;;;;10.90;1.95;;;6.20;99.90;;;;;;5114694;28;20047;-71
2022/01/28 09:32:53;;;;;;;10.02;1.58;;;6.20;99.90;;;;;;5115258;28;20136;-73
2022/01/28 09:35:19;;;;;;;16.13;2.00;;;6.00;99.90;;;;;;5097672;28;20058;-70
2022/01/28 09:37:45;;;;;;;12.88;1.80;;;6.10;99.90;;;;;;5114699;28;20043;-70
2022/01/28 09:40:11;;;;;;;13.13;3.10;;;6.10;99.90;;;;;;5115938;28;20475;-72
2022/01/28 09:42:41;;;;;;;15.18;3.00;;;6.20;99.90;;;;;;5114975;28;20101;-73
2022/01/28 09:45:09;;;;;;;12.40;1.40;;;6.10;99.90;;;;;;5115519;28;20487;-70
2022/01/28 09:47:36;;;;;;;9.52;1.70;;;6.10;99.90;;;;;;5114580;28;20225;-72
2022/01/28 09:50:04;;;;;;;14.85;1.52;;;6.50;99.90;;;;;;5115537;28;20059;-72
2022/01/28 09:52:30;;;;;;;14.90;2.05;;;6.20;99.90;;;;;;5114030;28;20078;-70
2022/01/28 09:54:56;;;;;;;17.88;2.20;;;6.20;99.90;;;;;;5115000;28;20048;-73
2022/01/28 09:57:21;;;;;;;11.98;2.00;;;6.10;99.90;;;;;;5114373;28;20050;-69
2022/01/28 09:59:47;;;;;;;17.10;1.92;;;6.20;99.90;;;;;;5097261;28;20035;-69
2022/01/28 10:02:13;;;;;;;10.10;1.45;;;6.20;99.90;;;;;;5114310;28;20036;-70
2022/01/28 10:04:39;;;;;;;18.30;1.85;;;6.40;99.90;;;;;;5115785;28;20039;-72
2022/01/28 10:07:14;;;;;;;15.32;2.03;;;6.60;99.90;;;;;;5116170;28;20101;-70
2022/01/28 10:10:00;;;;;;;16.98;1.90;;;6.20;99.90;;;;;;5114916;28;20047;-70
2022/01/28 10:12:36;;;;;;;17.15;2.15;;;6.40;99.90;;;;;;5114943;28;20476;-69
2022/01/28 10:15:16;;;;;;;14.82;2.88;;;6.40;99.90;;;;;;5115367;28;20079;-71
2022/01/28 10:17:58;;;;;;;13.68;2.03;;;6.40;99.90;;;;;;5116091;28;20039;-70
2022/01/28 10:20:26;;;;;;;9.38;1.65;;;6.30;99.90;;;;;;5115456;28;20439;-70
2022/01/28 10:22:54;;;;;;;16.55;2.13;;;6.40;99.90;;;;;;5115173;28;20050;-70
2022/01/28 10:25:32;;;;;;;11.98;1.80;;;6.70;99.90;;;;;;5114672;28;20047;-70
2022/01/28 10:28:05;;;;;;;13.40;1.83;;;6.40;99.90;;;;;;5113651;28;20040;-70
2022/01/28 10:30:36;;;;;;;10.98;1.77;;;6.70;99.90;;;;;;5114730;28;20054;-69
2022/01/28 10:33:21;;;;;;;11.85;1.65;;;6.80;99.90;;;;;;5114892;28;20054;-70
2022/01/28 10:35:53;;;;;;;11.00;1.65;;;6.90;99.90;;;;;;5115332;28;20119;-69
2022/01/28 10:38:31;;;;;;;9.50;1.50;;;6.50;99.90;;;;;;5113686;28;20395;-70
2022/01/28 10:41:18;;;;;;;14.38;1.92;;;6.50;99.90;;;;;;5114422;28;20112;-69
2022/01/28 10:43:48;;;;;;;12.80;2.33;;;6.60;99.90;;;;;;5113355;28;20395;-72
2022/01/28 10:46:21;;;;;;;18.50;3.38;;;6.60;99.90;;;;;;5112713;28;20100;-69
2022/01/28 10:49:08;;;;;;;17.75;2.05;;;6.10;99.90;;;;;;5114147;28;20047;-70
2022/01/28 10:52:01;;;;;;;16.40;1.90;;;6.70;99.90;;;;;;5112557;28;20052;-70
2022/01/28 10:54:27;;;;;;;9.18;1.30;;;6.70;99.90;;;;;;5112202;28;20043;-69
2022/01/28 10:56:58;;;;;;;11.40;2.30;;;6.80;99.90;;;;;;5113038;28;20120;-72
2022/01/28 10:59:37;;;;;;;21.23;1.92;;;6.80;99.90;;;;;;5112472;28;20065;-72
2022/01/28 11:02:04;;;;;;;13.52;1.65;;;7.40;99.90;;;;;;5114217;28;20391;-70
2022/01/28 11:04:31;;;;;;;12.40;1.52;;;7.00;99.90;;;;;;5113873;28;20130;-67
2022/01/28 11:06:59;;;;;;;10.18;1.48;;;7.00;99.90;;;;;;5112432;28;20539;-72
2022/01/28 11:09:25;;;;;;;16.42;2.95;;;7.10;99.90;;;;;;5112658;28;20071;-69
2022/01/28 11:11:53;;;;;;;8.20;1.48;;;7.10;99.90;;;;;;5113675;28;20408;-69
2022/01/28 11:14:20;;;;;;;10.30;1.83;;;7.30;99.90;;;;;;5114264;28;20380;-69
2022/01/28 11:16:47;;;;;;;8.52;1.20;;;7.20;99.90;;;;;;5112598;28;20043;-70
2022/01/28 11:19:19;;;;;;;9.63;1.52;;;7.30;99.90;;;;;;5113043;28;20092;-70
2022/01/28 11:22:08;;;;;;;13.60;1.52;;;7.50;99.90;;;;;;5113477;28;20047;-70
2022/01/28 11:25:09;;;;;;;8.63;1.48;;;7.30;99.90;;;;;;5111853;28;20051;-70
2022/01/28 11:27:38;;;;;;;8.90;1.25;;;7.30;99.90;;;;;;5113480;28;20036;-69
2022/01/28 11:30:28;;;;;;;10.50;1.45;;;7.40;99.90;;;;;;5113191;28;20082;-70
2022/01/28 11:33:08;;;;;;;13.00;1.30;;;7.20;99.90;;;;;;5113159;28;20058;-69
2022/01/28 11:35:38;;;;;;;10.63;1.35;;;7.20;99.90;;;;;;5113373;28;20044;-68
2022/01/28 11:38:24;;;;;;;10.30;1.98;;;7.10;99.90;;;;;;5095466;28;20133;-69
2022/01/28 11:40:54;;;;;;;13.80;1.42;;;7.10;99.90;;;;;;5102420;28;20415;-68
2022/01/28 11:43:25;;;;;;;15.80;1.77;;;7.10;99.90;;;;;;5112507;28;20055;-69
2022/01/28 11:46:08;;;;;;;11.65;1.50;;;7.10;99.90;;;;;;5111931;28;20050;-72
2022/01/28 11:48:55;;;;;;;9.77;2.00;;;7.00;99.90;;;;;;5112230;28;20039;-69
2022/01/28 11:51:23;;;;;;;13.90;1.88;;;7.00;99.90;;;;;;5112750;28;20063;-68
2022/01/28 11:54:10;;;;;;;13.70;1.65;;;6.20;99.90;;;;;;5112078;28;20047;-71
2022/01/28 11:57:03;;;;;;;8.35;1.50;;;7.10;99.90;;;;;;5112568;28;20039;-68
2022/01/28 11:59:30;;;;;;;12.70;1.75;;;7.00;99.90;;;;;;5113259;28;20035;-70
2022/01/28 12:01:58;;;;;;;12.25;2.00;;;6.90;99.90;;;;;;5111760;28;20036;-70
2022/01/28 12:04:29;;;;;;;12.13;2.00;;;7.10;99.90;;;;;;5094468;28;20501;-69
2022/01/28 12:06:55;;;;;;;10.75;2.28;;;7.30;99.90;;;;;;5112609;28;20082;-70
2022/01/28 12:09:23;;;;;;;11.93;1.90;;;7.20;99.90;;;;;;5094994;28;20057;-68
2022/01/28 12:11:49;;;;;;;14.90;1.88;;;7.30;99.90;;;;;;5113094;28;20044;-68
2022/01/28 12:14:15;;;;;;;9.82;2.08;;;7.10;99.90;;;;;;5113443;28;20547;-69
2022/01/28 12:16:45;;;;;;;10.55;2.10;;;7.10;99.90;;;;;;5113485;28;20127;-68
2022/01/28 12:19:19;;;;;;;12.43;1.90;;;7.20;99.90;;;;;;5112751;28;20495;-68
2022/01/28 12:22:03;;;;;;;8.02;1.42;;;7.40;99.90;;;;;;5112894;28;20040;-72
2022/01/28 12:24:34;;;;;;;11.85;1.50;;;7.00;99.90;;;;;;5111549;28;20048;-69
2022/01/28 12:27:00;;;;;;;9.90;1.35;;;7.00;99.90;;;;;;5111919;28;20088;-68
2022/01/28 12:29:30;;;;;;;10.45;2.33;;;7.00;99.90;;;;;;5112728;28;20043;-69
2022/01/28 12:31:58;;;;;;;8.00;1.45;;;7.80;99.90;;;;;;5112644;28;20047;-68
2022/01/28 12:34:24;;;;;;;14.80;2.03;;;7.10;99.90;;;;;;5114620;28;20050;-69
2022/01/28 12:36:50;;;;;;;10.35;2.25;;;7.00;99.90;;;;;;5116139;28;20564;-68
2022/01/28 12:39:32;;;;;;;10.27;1.80;;;7.20;99.90;;;;;;5115312;28;20036;-69
2022/01/28 12:44:32;;;;;;;9.70;1.20;;;7.40;99.90;;;;;;5116777;28;20128;-72
2022/01/28 12:47:01;;;;;;;7.45;2.85;;;7.30;99.90;;;;;;5116152;28;20047;-69
2022/01/28 12:49:33;;;;;;;10.13;1.73;;;7.40;99.90;;;;;;5097928;28;20050;-70
2022/01/28 12:52:03;;;;;;;11.10;1.33;;;7.40;99.90;;;;;;5116464;28;20091;-69
2022/01/28 12:54:33;;;;;;;10.43;1.55;;;7.10;99.90;;;;;;5114599;28;20051;-69
2022/01/28 12:56:59;;;;;;;12.13;1.50;;;7.30;99.90;;;;;;5115872;28;20059;-69
2022/01/28 12:59:25;;;;;;;13.13;1.42;;;7.20;99.90;;;;;;5115330;28;20502;-69
2022/01/28 13:01:52;;;;;;;9.88;1.65;;;7.10;99.90;;;;;;5115319;28;20051;-69
2022/01/28 13:04:21;;;;;;;10.77;1.50;;;7.30;99.90;;;;;;5116006;28;20136;-69
2022/01/28 13:09:19;;;;;;;26.83;9.52;;;7.20;99.90;;;;;;5115708;28;20138;-68
2022/01/28 13:11:57;;;;;;;16.25;2.15;;;7.30;99.90;;;;;;5114911;28;20073;-72
2022/01/28 13:14:35;;;;;;;11.40;1.40;;;7.20;99.90;;;;;;5098338;28;20059;-70
2022/01/28 13:17:03;;;;;;;11.80;1.48;;;7.30;99.90;;;;;;5115541;28;20096;-69
2022/01/28 13:19:29;;;;;;;11.68;1.83;;;7.10;99.90;;;;;;5114840;28;20040;-69
2022/01/28 13:21:55;;;;;;;13.73;2.40;;;7.20;99.90;;;;;;5114946;28;20168;-69
2022/01/28 13:24:24;;;;;;;14.85;1.67;;;7.20;99.90;;;;;;5115591;28;20131;-71
2022/01/28 13:27:05;;;;;;;12.13;1.80;;;7.60;99.90;;;;;;5114454;28;20047;-71
2022/01/28 13:29:33;;;;;;;14.10;1.58;;;7.40;99.90;;;;;;5115671;28;20055;-69
2022/01/28 13:32:08;;;;;;;10.05;1.33;;;7.40;99.90;;;;;;5114773;28;20506;-70
2022/01/28 13:34:54;;;;;;;12.52;1.60;;;7.50;99.90;;;;;;5114709;28;20044;-70
2022/01/28 13:37:39;;;;;;;11.60;1.60;;;7.40;99.90;;;;;;5116687;28;20050;-70
2022/01/28 13:40:30;;;;;;;12.18;1.52;;;7.50;99.90;;;;;;5115291;28;20039;-69
2022/01/28 13:43:09;;;;;;;9.77;1.67;;;7.50;99.90;;;;;;5114646;28;20515;-71
2022/01/28 13:45:54;;;;;;;9.10;1.73;;;7.40;99.90;;;;;;5114007;28;20048;-69
2022/01/28 13:48:32;;;;;;;10.02;1.25;;;7.30;99.90;;;;;;5114648;28;20051;-69
2022/01/28 13:51:04;;;;;;;12.00;1.67;;;7.50;99.90;;;;;;5115470;28;20100;-74
2022/01/28 13:54:15;;;;;;;9.68;1.63;;;7.60;99.90;;;;;;5114664;28;20483;-70
2022/01/28 13:56:36;;;;;;;7.22;1.42;;;7.40;99.90;;;;;;5115650;28;20052;-69
2022/01/28 13:59:15;;;;;;;10.05;1.02;;;7.10;99.90;;;;;;5115339;28;20057;-69
2022/01/28 14:01:46;;;;;;;13.95;1.67;;;7.20;99.90;;;;;;5115451;28;20051;-69
2022/01/28 14:04:40;;;;;;;13.48;2.45;;;7.20;99.90;;;;;;5115417;28;20101;-71
2022/01/28 14:07:14;;;;;;;7.70;1.35;;;7.20;99.90;;;;;;5108516;28;20047;-69
2022/01/28 14:09:46;;;;;;;11.77;1.30;;;7.10;99.90;;;;;;5115251;28;20210;-69
2022/01/28 14:12:44;;;;;;;10.47;1.40;;;7.20;99.90;;;;;;5113636;28;20043;-68
2022/01/28 14:15:38;;;;;;;10.68;1.23;;;7.40;99.90;;;;;;5097465;28;20663;-69
2022/01/28 14:18:05;;;;;;;11.32;1.55;;;7.10;99.90;;;;;;5115147;28;20565;-69
2022/01/28 14:20:31;;;;;;;9.05;1.55;;;7.30;99.90;;;;;;5096501;28;20048;-69
2022/01/28 14:22:58;;;;;;;12.68;1.60;;;7.10;99.90;;;;;;5113263;28;20138;-68
2022/01/28 14:25:24;;;;;;;9.90;1.60;;;7.10;99.90;;;;;;5114338;28;20130;-69
2022/01/28 14:30:36;;;;;;;10.25;1.58;;;7.40;99.90;;;;;;5112892;28;20047;-69
2022/01/28 14:33:03;;;;;;;7.63;1.25;;;7.10;99.90;;;;;;5112871;28;20051;-68
2022/01/28 14:35:29;;;;;;;6.60;1.30;;;7.20;99.90;;;;;;5114033;28;20039;-69
2022/01/28 14:37:54;;;;;;;17.05;2.22;;;7.20;99.90;;;;;;5080100;28;20058;-69
2022/01/28 14:40:20;;;;;;;7.85;1.92;;;7.10;99.90;;;;;;5112701;28;20050;-68
2022/01/28 14:42:46;;;;;;;13.15;1.60;;;7.40;99.90;;;;;;5114034;28;20036;-69
2022/01/28 14:45:12;;;;;;;12.88;1.83;;;7.20;99.90;;;;;;5112933;28;20039;-68